• Join FlightAware (Why Join?)
  • Login
  • US Flag 
04:10AM EDT


 

Airport Tracker/Info


-or-


 

Live Flight TrackerFlight Track Log ✈ EJA829P ✈ 08-Jul-2013 ✈ KMMU - KMVY

Flight Track Log - Related Links

Times and Time Zones

All times are in EDT time to prevent confusion due to time zone crossing. See the EJA829P flight status page for this flight to view local times or setup timezone preferences in your user account.

Time Position Orientation Groundspeed Altitude Reporting Facility
EDT Latitude Longitude Course Direction KTS MPH feet Rate Location/Type
03:02PM 40.7667 -74.4167 36° Northeast 270 311 7,000  Level New York TRACON
03:03PM 40.8333 -74.3833 21° North 272 313 7,000  Level New York TRACON
03:04PM 40.9000 -74.3333 30° Northeast 271 312 7,000  Level New York TRACON
03:05PM 40.9667 -74.2667 37° Northeast 270 311 7,000  Level New York TRACON
03:06PM 41.0333 -74.2167 29° Northeast 275 316 7,000  Level New York TRACON
03:07PM 40.8050 -74.4094 36° Northeast  Level FlightAware Approximate
03:07PM 41.0667 -74.1500 56° Northeast 275 316 7,000  Level New York TRACON
03:08PM 41.1000 -74.0500 66° East 272 313 7,700 1,860 Climbing New York TRACON
03:09PM 41.1333 -73.9500 66° East 292 336 11,000 1,800 Climbing New York TRACON
03:10PM 41.1500 -73.8500 77° East 333 383 11,300 480 Climbing New York TRACON
03:11PM 41.1667 -73.7167 81° East 388 447 12,000 1,140 Climbing New York TRACON
03:12PM 41.2000 -73.5833 72° East 350 403 13,800 900 Climbing New York TRACON
03:14PM 41.2386 -73.2847 80° East 373 429 15,000 360 Climbing Boston Center
03:15PM 41.2583 -73.1469 79° East 373 429 15,000  Level Boston Center
03:16PM 41.2672 -73.0089 85° East 373 429 15,000 -60 Level Boston Center
03:17PM 41.2742 -72.8764 86° East 367 422 14,900 -60 Descending Boston Center
03:18PM 41.2850 -72.7522 83° East 367 422 14,900  Level Boston Center
03:19PM 41.2958 -72.6031 84° East 367 422 15,000  Climbing Boston Center
03:20PM 41.3022 -72.4786 86° East 367 422 15,000 -60 Level Boston Center
03:21PM 41.3125 -72.3267 85° East 367 422 14,900 -60 Descending Boston Center
03:22PM 41.3228 -72.1886 84° East 372 428 14,900  Level Boston Center
03:23PM 41.3328 -72.0475 85° East 372 428 15,000  Climbing Boston Center
03:24PM 41.3344 -71.9564 89° East 382 440 14,900 -840 Descending Boston Center
03:25PM 41.3439 -71.7931 86° East 376 433 13,500 -1,500 Descending Boston Center
03:26PM 41.3475 -71.6742 88° East 360 414 11,800 -1,980 Descending Boston Center
03:27PM 41.3567 -71.5164 86° East 338 389 9,300 -1,980 Descending Boston Center
03:28PM 41.3600 -71.4169 87° East 319 367 7,700 -1,860 Descending Boston Center
03:29PM 41.3672 -71.3089 85° East 297 342 5,800 -1,320 Descending Boston Center
03:30PM 41.3703 -71.2008 88° East 278 320 5,000 -480 Descending Boston Center
03:31PM 41.3753 -71.0931 86° East 272 313 4,900  Descending Boston Center
03:32PM 41.3783 -71.0042 87° East 266 306 5,000  Climbing Boston Center
03:33PM 41.4000 -70.9069 73° East 249 287 5,000 -420 Level Boston Center
03:34PM 41.4283 -70.8425 60° Northeast 229 264 4,200 -1,620 Descending Boston Center
03:35PM 41.4394 -70.7453 81° East 224 258 1,800 -1,380 Descending Boston Center
03:36PM 41.4342 -70.6708 95° East 226 260 1,500 -600 Descending Boston Center
03:37PM 41.4186 -70.6103 109° East 179 206 600 -600 Descending Boston Center
03:38PM 41.4011 -70.5639 117° Southeast 148 170 300 5,160 Descending Boston Center
03:39PM 41.3858 -70.5172 114° Southeast 148 170 11,000 5,340 Climbing Boston Center
03:40PM 41.3683 -70.4681 115° Southeast 148 170 11,000  Level Boston Center
03:42PM 41.3833 -70.6000 270° West  Level FlightAware Approximate
03:49PM 41.3934 -70.6139 270° West  Level Estimated
03:50PM 41.3934 -70.6139 270° West  Level Estimated
03:51PM 41.3934 -70.6139 270° West  Level Estimated
03:52PM 41.3934 -70.6139 270° West  Level Estimated
03:53PM 41.3934 -70.6139 270° West  Level Estimated
03:54PM 41.3934 -70.6139 270° West  Level Estimated